createdAt,value
2018-12-17T00:01:08.173Z,4.95
2018-12-17T00:03:37.245Z,4.92
2018-12-17T00:06:06.744Z,4.85
2018-12-17T00:08:36.316Z,4.85
2018-12-17T00:11:05.763Z,4.88
2018-12-17T00:13:35.094Z,4.90
2018-12-17T00:16:04.792Z,4.94
2018-12-17T00:18:34.075Z,4.99
2018-12-17T00:21:03.436Z,5.02
2018-12-17T00:23:32.545Z,5.03
2018-12-17T00:26:01.995Z,5.05
2018-12-17T00:28:31.101Z,5.05
2018-12-17T00:31:00.354Z,5.10
2018-12-17T00:33:29.489Z,5.14
2018-12-17T00:35:58.676Z,5.16
2018-12-17T00:38:27.771Z,5.17
2018-12-17T00:40:56.936Z,5.17
2018-12-17T00:43:26.316Z,5.18
2018-12-17T00:45:55.584Z,5.15
2018-12-17T00:48:24.920Z,5.17
2018-12-17T00:50:54.322Z,5.15
2018-12-17T00:53:23.722Z,5.06
2018-12-17T00:55:53.168Z,5.09
2018-12-17T00:58:22.406Z,5.08
2018-12-17T01:00:51.581Z,5.03
2018-12-17T01:03:20.816Z,5.00
2018-12-17T01:05:50.083Z,4.99
2018-12-17T01:08:19.395Z,5.01
2018-12-17T01:10:48.524Z,5.07
2018-12-17T01:13:17.682Z,4.85
2018-12-17T01:15:47.002Z,4.73
2018-12-17T01:18:16.373Z,4.90
2018-12-17T01:20:45.693Z,5.11
2018-12-17T01:23:14.882Z,5.11
2018-12-17T01:25:44.059Z,5.19
2018-12-17T01:28:13.295Z,5.17
2018-12-17T01:30:42.760Z,5.04
2018-12-17T01:33:12.383Z,4.71
2018-12-17T01:35:42.109Z,4.82
2018-12-17T01:38:12.110Z,5.02
2018-12-17T01:40:41.745Z,5.13
2018-12-17T01:43:11.574Z,5.16
2018-12-17T01:45:40.953Z,5.18
2018-12-17T01:48:10.264Z,5.21
2018-12-17T01:50:39.468Z,5.22
2018-12-17T01:53:08.731Z,5.17
2018-12-17T01:55:38.107Z,5.10
2018-12-17T01:58:07.185Z,5.05
2018-12-17T02:00:36.560Z,5.15
2018-12-17T02:03:05.796Z,5.22
2018-12-17T02:05:35.209Z,5.24
2018-12-17T02:08:04.392Z,5.27
2018-12-17T02:10:33.680Z,5.29
2018-12-17T02:13:03.023Z,5.28
2018-12-17T02:15:32.511Z,5.26
2018-12-17T02:18:01.749Z,5.23
2018-12-17T02:20:30.923Z,5.21
2018-12-17T02:23:00.291Z,5.24
2018-12-17T02:25:29.719Z,5.27
2018-12-17T02:27:58.951Z,5.25
2018-12-17T02:30:28.323Z,5.28
2018-12-17T02:32:57.412Z,5.30
2018-12-17T02:35:26.768Z,5.30
2018-12-17T02:37:56.065Z,5.29
2018-12-17T02:40:25.554Z,5.33
2018-12-17T02:42:54.696Z,4.57
2018-12-17T02:45:24.166Z,4.35
2018-12-17T02:47:53.356Z,4.66
2018-12-17T02:50:22.864Z,4.98
2018-12-17T02:52:52.051Z,5.15
2018-12-17T02:55:21.185Z,5.17
2018-12-17T02:57:50.298Z,5.08
2018-12-17T03:00:19.487Z,4.89
2018-12-17T03:02:48.608Z,4.99
2018-12-17T03:05:17.723Z,4.91
2018-12-17T03:07:46.778Z,4.90
2018-12-17T03:10:15.981Z,5.04
2018-12-17T03:12:45.311Z,5.21
2018-12-17T03:15:14.452Z,5.32
2018-12-17T03:17:43.696Z,5.43
2018-12-17T03:20:13.187Z,5.50
2018-12-17T03:22:42.399Z,5.52
2018-12-17T03:25:11.647Z,5.57
2018-12-17T03:27:40.836Z,5.61
2018-12-17T03:30:10.034Z,5.62
2018-12-17T03:32:39.440Z,5.74
2018-12-17T03:35:08.639Z,5.84
2018-12-17T03:37:37.764Z,5.86
2018-12-17T03:40:07.091Z,5.53
2018-12-17T03:42:36.315Z,4.95
2018-12-17T03:45:05.535Z,4.27
2018-12-17T03:47:34.716Z,4.11
2018-12-17T03:50:04.132Z,4.08
2018-12-17T03:52:33.307Z,3.98
2018-12-17T03:55:02.598Z,4.03
2018-12-17T03:57:31.715Z,4.31
2018-12-17T04:00:01.007Z,4.23
2018-12-17T04:02:30.632Z,4.13
2018-12-17T04:04:59.999Z,4.56
2018-12-17T04:07:29.125Z,4.89
2018-12-17T04:09:58.432Z,5.10
2018-12-17T04:12:27.845Z,5.22
2018-12-17T04:14:57.011Z,5.28
2018-12-17T04:17:26.142Z,5.36
2018-12-17T04:19:55.475Z,5.38
2018-12-17T04:22:24.834Z,5.32
2018-12-17T04:24:54.247Z,5.33
2018-12-17T04:27:23.404Z,5.36
2018-12-17T04:29:52.728Z,5.41
2018-12-17T04:32:22.015Z,5.43
2018-12-17T04:34:51.250Z,5.42
2018-12-17T04:37:21.049Z,5.47
2018-12-17T04:39:50.711Z,5.48
2018-12-17T04:42:20.357Z,5.36
2018-12-17T04:44:50.011Z,5.24
2018-12-17T04:47:19.393Z,5.29
2018-12-17T04:49:48.661Z,5.25
2018-12-17T04:52:17.867Z,4.61
2018-12-17T04:54:47.036Z,4.50
2018-12-17T04:57:16.199Z,4.59
2018-12-17T04:59:45.341Z,4.75
2018-12-17T05:02:14.654Z,5.13
2018-12-17T05:04:43.848Z,5.42
2018-12-17T05:07:13.168Z,5.49
2018-12-17T05:09:44.365Z,5.56
2018-12-17T05:12:13.701Z,4.95
2018-12-17T05:14:43.003Z,3.82
2018-12-17T05:17:12.423Z,3.98
2018-12-17T05:19:41.597Z,3.95
2018-12-17T05:22:10.960Z,4.02
2018-12-17T05:24:40.279Z,4.07
2018-12-17T05:27:09.310Z,4.23
2018-12-17T05:29:38.803Z,4.65
2018-12-17T05:32:08.104Z,5.02
2018-12-17T05:34:37.504Z,5.27
2018-12-17T05:37:06.610Z,5.37
2018-12-17T05:39:35.826Z,5.45
2018-12-17T05:42:04.983Z,5.48
2018-12-17T05:44:34.157Z,5.50
2018-12-17T05:47:03.478Z,5.57
2018-12-17T05:49:32.609Z,5.59
2018-12-17T05:52:01.722Z,5.66
2018-12-17T05:54:30.885Z,5.75
2018-12-17T05:56:59.945Z,5.59
2018-12-17T05:59:29.351Z,5.51
2018-12-17T06:01:58.518Z,5.68
2018-12-17T06:04:27.692Z,5.80
2018-12-17T06:06:57.015Z,5.79
2018-12-17T06:09:26.370Z,5.80
2018-12-17T06:11:55.820Z,5.84
2018-12-17T06:14:25.204Z,5.85
2018-12-17T06:16:54.389Z,5.83
2018-12-17T06:19:23.749Z,5.89
2018-12-17T06:21:52.872Z,5.93
2018-12-17T06:24:21.911Z,5.96
2018-12-17T06:26:51.215Z,5.99
2018-12-17T06:29:20.432Z,5.99
2018-12-17T06:31:49.784Z,6.01
2018-12-17T06:34:18.842Z,5.97
2018-12-17T06:36:47.964Z,5.94
2018-12-17T06:39:17.212Z,5.98
2018-12-17T06:41:46.445Z,5.96
2018-12-17T06:44:15.624Z,5.87
2018-12-17T06:46:44.712Z,5.82
2018-12-17T06:49:13.936Z,5.76
2018-12-17T06:51:43.377Z,5.70
2018-12-17T06:54:12.683Z,5.66
2018-12-17T06:56:41.759Z,5.69
2018-12-17T06:59:10.836Z,5.67
2018-12-17T07:01:40.055Z,5.72
2018-12-17T07:04:09.040Z,5.70
2018-12-17T07:06:38.160Z,5.77
2018-12-17T07:09:08.009Z,5.79
2018-12-17T07:11:37.175Z,5.88
2018-12-17T07:14:06.420Z,5.96
2018-12-17T07:16:35.788Z,6.05
2018-12-17T07:19:05.039Z,6.15
2018-12-17T07:21:34.184Z,6.22
2018-12-17T07:24:03.663Z,6.22
2018-12-17T07:26:32.891Z,6.18
2018-12-17T07:29:02.258Z,6.12
2018-12-17T07:31:31.361Z,5.97
2018-12-17T07:34:00.604Z,5.90
2018-12-17T07:36:30.263Z,5.82
2018-12-17T07:38:59.576Z,5.74
2018-12-17T07:41:28.796Z,5.60
2018-12-17T07:43:58.185Z,5.56
2018-12-17T07:46:27.585Z,5.56
2018-12-17T07:48:56.984Z,5.64
2018-12-17T07:51:26.296Z,5.68
2018-12-17T07:53:55.528Z,5.72
2018-12-17T07:56:24.764Z,5.78
2018-12-17T07:58:54.073Z,5.79
2018-12-17T08:01:23.447Z,5.76
2018-12-17T08:03:52.674Z,5.76
2018-12-17T08:06:22.022Z,5.80
2018-12-17T08:08:51.703Z,5.86
2018-12-17T08:11:20.979Z,5.91
2018-12-17T08:13:50.287Z,5.98
2018-12-17T08:16:19.657Z,5.95
2018-12-17T08:18:49.855Z,6.05
2018-12-17T08:21:19.619Z,6.18
2018-12-17T08:23:49.641Z,6.22
2018-12-17T08:26:19.296Z,6.31
2018-12-17T08:28:48.675Z,6.37
2018-12-17T08:31:17.865Z,6.48
2018-12-17T08:33:47.331Z,6.47
2018-12-17T08:36:16.555Z,6.08
2018-12-17T08:38:45.807Z,6.00
2018-12-17T08:41:15.196Z,6.14
2018-12-17T08:43:44.508Z,5.88
2018-12-17T08:46:13.571Z,5.98
2018-12-17T08:48:42.760Z,6.32
2018-12-17T08:51:11.941Z,6.54
2018-12-17T08:53:40.969Z,6.76
2018-12-17T08:56:10.242Z,6.81
2018-12-17T08:58:39.341Z,6.83
2018-12-17T09:01:08.536Z,6.90
2018-12-17T09:03:37.896Z,6.97
2018-12-17T09:06:07.430Z,6.95
2018-12-17T09:08:36.651Z,5.91
2018-12-17T09:11:05.800Z,5.27
2018-12-17T09:13:35.191Z,4.93
2018-12-17T09:16:04.140Z,4.80
2018-12-17T09:18:33.572Z,4.98
2018-12-17T09:21:02.996Z,4.92
2018-12-17T09:23:32.235Z,4.97
2018-12-17T09:26:01.409Z,5.65
2018-12-17T09:28:30.743Z,6.03
2018-12-17T09:31:00.116Z,5.94
2018-12-17T09:33:29.385Z,5.44
2018-12-17T09:35:58.448Z,4.92
2018-12-17T09:38:27.792Z,4.63
2018-12-17T09:40:57.775Z,4.39
2018-12-17T09:43:27.147Z,4.48
2018-12-17T09:45:56.345Z,4.55
2018-12-17T09:48:25.659Z,4.71
2018-12-17T09:50:55.577Z,4.66
2018-12-17T09:53:24.984Z,4.76
2018-12-17T09:55:54.471Z,5.02
2018-12-17T09:58:23.873Z,5.37
2018-12-17T10:00:52.979Z,5.84
2018-12-17T10:03:22.420Z,6.20
2018-12-17T10:05:51.552Z,5.76
2018-12-17T10:08:20.658Z,5.54
2018-12-17T10:10:50.080Z,5.92
2018-12-17T10:13:19.431Z,5.46
2018-12-17T10:15:48.631Z,5.02
2018-12-17T10:18:17.834Z,4.93
2018-12-17T10:20:47.065Z,5.48
2018-12-17T10:23:16.355Z,4.85
2018-12-17T10:25:45.617Z,4.75
2018-12-17T10:28:14.776Z,4.50
2018-12-17T10:30:44.243Z,4.50
2018-12-17T10:33:13.561Z,4.31
2018-12-17T10:35:42.662Z,4.34
2018-12-17T10:38:11.947Z,4.81
2018-12-17T10:40:41.161Z,4.87
2018-12-17T10:43:10.327Z,5.19
2018-12-17T10:45:39.594Z,5.21
2018-12-17T10:48:08.687Z,5.20
2018-12-17T10:50:37.960Z,5.48
2018-12-17T10:53:07.311Z,5.98
2018-12-17T10:55:36.594Z,5.83
2018-12-17T10:58:05.875Z,5.57
2018-12-17T11:00:40.281Z,5.00
2018-12-17T11:03:14.392Z,5.01
2018-12-17T11:05:45.880Z,5.29
2018-12-17T11:08:14.987Z,5.28
2018-12-17T11:10:44.441Z,5.02
2018-12-17T11:13:13.622Z,4.85
2018-12-17T11:15:42.861Z,4.84
2018-12-17T11:18:11.999Z,4.99
2018-12-17T11:20:42.162Z,5.72
2018-12-17T11:23:11.440Z,6.29
2018-12-17T11:25:40.660Z,6.44
2018-12-17T11:28:09.793Z,6.71
2018-12-17T11:30:39.060Z,6.91
2018-12-17T11:33:08.305Z,6.95
2018-12-17T11:35:37.483Z,6.85
2018-12-17T11:38:06.601Z,6.77
2018-12-17T11:40:35.651Z,6.76
2018-12-17T11:43:04.892Z,6.75
2018-12-17T11:45:34.460Z,6.75
2018-12-17T11:48:03.859Z,6.17
2018-12-17T11:50:33.195Z,5.67
2018-12-17T11:53:02.322Z,5.42
2018-12-17T11:55:31.488Z,5.50
2018-12-17T11:58:14.668Z,5.56
2018-12-17T12:00:53.910Z,5.62
2018-12-17T12:03:22.456Z,6.10
2018-12-17T12:05:51.967Z,5.92
2018-12-17T12:08:21.347Z,5.75
2018-12-17T12:10:50.633Z,5.59
2018-12-17T12:13:19.922Z,5.33
2018-12-17T12:15:49.314Z,5.24
2018-12-17T12:18:18.727Z,5.68
2018-12-17T12:20:48.074Z,5.55
2018-12-17T12:23:17.492Z,5.53
2018-12-17T12:25:46.580Z,5.46
2018-12-17T12:28:15.832Z,5.44
2018-12-17T12:30:45.111Z,5.41
2018-12-17T12:33:14.496Z,5.68
2018-12-17T12:35:43.732Z,6.16
2018-12-17T12:38:12.889Z,6.73
2018-12-17T12:40:42.221Z,7.21
2018-12-17T12:43:11.544Z,7.45
2018-12-17T12:45:40.875Z,7.62
2018-12-17T12:48:10.009Z,7.65
2018-12-17T12:50:39.176Z,7.80
2018-12-17T12:53:08.493Z,7.91
2018-12-17T12:55:37.788Z,8.00
2018-12-17T12:58:06.992Z,8.07
2018-12-17T13:00:36.180Z,8.18
2018-12-17T13:03:05.420Z,8.38
2018-12-17T13:05:34.859Z,8.27
2018-12-17T13:08:04.139Z,8.52
2018-12-17T13:10:33.290Z,8.41
2018-12-17T13:13:02.704Z,8.27
2018-12-17T13:15:31.944Z,8.49
2018-12-17T13:18:01.172Z,8.40
2018-12-17T13:20:30.245Z,8.19
2018-12-17T13:22:59.484Z,8.09
2018-12-17T13:25:33.320Z,7.98
2018-12-17T13:28:02.787Z,7.81
2018-12-17T13:30:32.097Z,7.91
2018-12-17T13:33:01.417Z,7.81
2018-12-17T13:35:30.801Z,7.58
2018-12-17T13:38:00.373Z,7.25
2018-12-17T13:40:29.655Z,6.97
2018-12-17T13:42:58.908Z,7.39
2018-12-17T13:45:28.151Z,7.81
2018-12-17T13:47:57.363Z,8.09
2018-12-17T13:50:31.668Z,8.22
2018-12-17T13:53:05.951Z,8.06
2018-12-17T13:55:35.119Z,6.85
2018-12-17T13:58:04.547Z,6.26
2018-12-17T14:00:33.720Z,5.91
2018-12-17T14:03:03.004Z,5.94
2018-12-17T14:05:32.307Z,5.69
2018-12-17T14:08:01.518Z,6.23
2018-12-17T14:10:35.906Z,6.79
2018-12-17T14:13:05.146Z,7.18
2018-12-17T14:15:39.428Z,7.56
2018-12-17T14:18:12.803Z,7.68
2018-12-17T14:20:47.057Z,7.83
2018-12-17T14:23:16.475Z,7.91
2018-12-17T14:25:45.658Z,7.92
2018-12-17T14:28:15.021Z,7.94
2018-12-17T14:30:44.506Z,8.05
2018-12-17T14:33:13.683Z,7.93
2018-12-17T14:35:47.089Z,7.04
2018-12-17T14:38:16.399Z,6.38
2018-12-17T14:40:45.769Z,6.28
2018-12-17T14:43:14.835Z,6.23
2018-12-17T14:45:44.240Z,6.44
2018-12-17T14:48:13.513Z,7.04
2018-12-17T14:50:42.799Z,7.38
2018-12-17T14:53:12.044Z,7.59
2018-12-17T14:55:41.393Z,7.76
2018-12-17T14:58:10.796Z,7.85
2018-12-17T15:00:40.247Z,7.89
2018-12-17T15:03:09.328Z,7.93
2018-12-17T15:05:38.596Z,7.93
2018-12-17T15:08:07.803Z,8.01
2018-12-17T15:10:37.190Z,7.95
2018-12-17T15:13:06.552Z,7.99
2018-12-17T15:15:35.708Z,8.08
2018-12-17T15:18:04.852Z,8.08
2018-12-17T15:20:34.143Z,8.13
2018-12-17T15:23:03.388Z,8.24
2018-12-17T15:25:32.995Z,8.26
2018-12-17T15:28:02.295Z,8.22
2018-12-17T15:30:31.617Z,8.18
2018-12-17T15:33:00.980Z,8.08
2018-12-17T15:35:30.363Z,7.99
2018-12-17T15:37:59.952Z,7.89
2018-12-17T15:40:29.173Z,7.76
2018-12-17T15:42:58.437Z,7.55
2018-12-17T15:45:27.838Z,7.44
2018-12-17T15:47:57.110Z,7.42
2018-12-17T15:50:26.220Z,7.42
2018-12-17T15:52:55.494Z,7.31
2018-12-17T15:55:24.931Z,7.35
2018-12-17T15:57:54.316Z,7.30
2018-12-17T16:00:23.705Z,7.00
2018-12-17T16:02:53.767Z,6.28
2018-12-17T16:05:23.146Z,5.45
2018-12-17T16:07:52.892Z,5.24
2018-12-17T16:10:22.075Z,5.34
2018-12-17T16:12:51.468Z,5.05
2018-12-17T16:15:20.803Z,4.99
2018-12-17T16:17:50.659Z,5.29
2018-12-17T16:20:20.181Z,5.46
2018-12-17T16:22:49.248Z,5.76
2018-12-17T16:25:18.435Z,6.00
2018-12-17T16:27:47.820Z,6.32
2018-12-17T16:30:17.015Z,6.48
2018-12-17T16:32:46.423Z,6.65
2018-12-17T16:35:15.649Z,6.76
2018-12-17T16:37:44.867Z,6.85
2018-12-17T16:40:14.584Z,6.82
2018-12-17T16:42:44.488Z,6.86
2018-12-17T16:45:14.419Z,6.95
2018-12-17T16:47:44.110Z,6.92
2018-12-17T16:50:13.659Z,6.92
2018-12-17T16:52:43.249Z,6.97
2018-12-17T16:55:12.727Z,7.01
2018-12-17T16:57:42.175Z,7.09
2018-12-17T17:00:11.697Z,7.13
2018-12-17T17:02:40.975Z,7.09
2018-12-17T17:05:10.246Z,7.11
2018-12-17T17:07:39.614Z,7.05
2018-12-17T17:10:10.229Z,6.95
2018-12-17T17:12:39.412Z,6.95
2018-12-17T17:15:11.353Z,6.99
2018-12-17T17:17:40.854Z,6.92
2018-12-17T17:20:10.201Z,6.85
2018-12-17T17:22:39.436Z,6.95
2018-12-17T17:25:08.775Z,6.96
2018-12-17T17:27:38.037Z,7.04
2018-12-17T17:30:08.406Z,7.06
2018-12-17T17:32:37.643Z,6.94
2018-12-17T17:35:07.298Z,6.69
2018-12-17T17:37:36.648Z,5.89
2018-12-17T17:40:08.787Z,6.09
2018-12-17T17:42:40.044Z,5.58
2018-12-17T17:45:09.323Z,5.37
2018-12-17T17:47:38.609Z,5.67
2018-12-17T17:50:07.926Z,6.14
2018-12-17T17:52:37.412Z,6.31
2018-12-17T17:55:07.436Z,6.60
2018-12-17T17:57:36.562Z,6.84
2018-12-17T18:00:05.953Z,7.04
2018-12-17T18:02:35.182Z,7.14
2018-12-17T18:05:04.584Z,7.29
2018-12-17T18:07:33.980Z,7.39
2018-12-17T18:10:05.396Z,7.50
2018-12-17T18:12:34.479Z,7.60
2018-12-17T18:15:03.893Z,7.69
2018-12-17T18:17:33.468Z,7.73
2018-12-17T18:20:02.748Z,7.74
2018-12-17T18:22:31.977Z,7.78
2018-12-17T18:25:01.283Z,7.81
2018-12-17T18:27:30.595Z,7.79
2018-12-17T18:30:00.124Z,7.67
2018-12-17T18:32:29.377Z,7.59
2018-12-17T18:34:58.523Z,7.53
2018-12-17T18:37:27.660Z,7.48
2018-12-17T18:39:56.904Z,7.40
2018-12-17T18:42:26.118Z,7.36
2018-12-17T18:44:55.421Z,7.32
2018-12-17T18:47:25.882Z,7.29
2018-12-17T18:49:55.503Z,7.20
2018-12-17T18:52:24.767Z,7.16
2018-12-17T18:54:53.912Z,7.07
2018-12-17T18:57:23.208Z,6.91
2018-12-17T18:59:52.713Z,6.88
2018-12-17T19:02:21.925Z,6.92
2018-12-17T19:04:51.145Z,6.79
2018-12-17T19:07:20.413Z,6.66
2018-12-17T19:09:49.687Z,6.72
2018-12-17T19:12:18.988Z,6.80
2018-12-17T19:14:48.286Z,6.65
2018-12-17T19:17:17.512Z,6.52
2018-12-17T19:19:46.772Z,6.57
2018-12-17T19:22:16.155Z,6.65
2018-12-17T19:24:45.455Z,6.72
2018-12-17T19:27:14.676Z,6.59
2018-12-17T19:29:43.887Z,6.49
2018-12-17T19:32:13.293Z,6.59
2018-12-17T19:34:42.611Z,6.70
2018-12-17T19:37:11.905Z,6.86
2018-12-17T19:39:41.305Z,6.97
2018-12-17T19:42:10.416Z,7.03
2018-12-17T19:44:39.804Z,7.03
2018-12-17T19:47:08.908Z,7.00
2018-12-17T19:49:38.919Z,6.96
2018-12-17T19:52:08.124Z,6.96
2018-12-17T19:54:37.640Z,6.92
2018-12-17T19:57:07.291Z,6.87
2018-12-17T19:59:37.024Z,6.82
2018-12-17T20:02:06.442Z,6.67
2018-12-17T20:04:35.723Z,6.67
2018-12-17T20:07:05.302Z,6.66
2018-12-17T20:09:35.282Z,6.69
2018-12-17T20:12:04.751Z,6.73
2018-12-17T20:14:34.071Z,6.75
2018-12-17T20:17:03.885Z,6.78
2018-12-17T20:19:33.168Z,6.78
2018-12-17T20:22:03.513Z,6.83
2018-12-17T20:24:32.903Z,6.82
2018-12-17T20:27:03.072Z,6.68
2018-12-17T20:29:32.657Z,6.68
2018-12-17T20:32:01.865Z,6.68
2018-12-17T20:34:31.831Z,6.73
2018-12-17T20:37:01.035Z,6.72
2018-12-17T20:39:30.613Z,6.74
2018-12-17T20:41:59.857Z,6.75
2018-12-17T20:44:29.203Z,6.75
2018-12-17T20:46:58.334Z,6.79
2018-12-17T20:49:27.662Z,6.74
2018-12-17T20:51:56.911Z,6.74
2018-12-17T20:54:26.118Z,6.78
2018-12-17T20:56:55.462Z,6.79
2018-12-17T20:59:24.651Z,6.72
2018-12-17T21:01:53.843Z,6.67
2018-12-17T21:04:22.961Z,6.42
2018-12-17T21:06:52.128Z,6.32
2018-12-17T21:09:21.262Z,6.25
2018-12-17T21:11:50.534Z,6.28
2018-12-17T21:14:23.730Z,6.35
2018-12-17T21:16:51.397Z,6.33
2018-12-17T21:19:20.740Z,6.34
2018-12-17T21:21:50.243Z,6.39
2018-12-17T21:24:19.514Z,6.35
2018-12-17T21:26:48.735Z,6.38
2018-12-17T21:29:18.023Z,6.36
2018-12-17T21:31:47.691Z,6.35
2018-12-17T21:34:16.864Z,6.35
2018-12-17T21:36:45.976Z,6.38
2018-12-17T21:39:15.316Z,6.41
2018-12-17T21:41:44.645Z,6.43
2018-12-17T21:44:13.996Z,6.36
2018-12-17T21:46:43.305Z,6.36
2018-12-17T21:49:12.614Z,6.40
2018-12-17T21:51:41.982Z,6.36
2018-12-17T21:54:11.157Z,6.20
2018-12-17T21:56:40.440Z,6.09
2018-12-17T21:59:09.832Z,5.92
2018-12-17T22:01:39.224Z,5.98
2018-12-17T22:04:08.387Z,6.00
2018-12-17T22:06:37.816Z,6.12
2018-12-17T22:09:08.313Z,6.15
2018-12-17T22:11:37.825Z,6.13
2018-12-17T22:14:06.960Z,6.12
2018-12-17T22:16:36.190Z,6.05
2018-12-17T22:19:05.345Z,5.89
2018-12-17T22:21:34.442Z,5.83
2018-12-17T22:24:03.768Z,5.86
2018-12-17T22:26:32.944Z,5.87
2018-12-17T22:29:02.368Z,5.78
2018-12-17T22:31:31.668Z,5.69
2018-12-17T22:34:00.943Z,5.71
2018-12-17T22:36:30.272Z,5.63
2018-12-17T22:38:59.356Z,5.61
2018-12-17T22:41:28.671Z,5.57
2018-12-17T22:43:57.852Z,5.61
2018-12-17T22:46:27.256Z,5.55
2018-12-17T22:48:56.531Z,5.52
2018-12-17T22:51:25.996Z,5.47
2018-12-17T22:53:55.321Z,5.57
2018-12-17T22:56:24.451Z,5.73
2018-12-17T22:58:53.744Z,5.83
2018-12-17T23:01:23.055Z,5.89
2018-12-17T23:03:52.308Z,5.90
2018-12-17T23:06:21.548Z,5.95
2018-12-17T23:09:01.903Z,5.97
2018-12-17T23:11:47.385Z,5.94
2018-12-17T23:14:27.639Z,5.83
2018-12-17T23:17:08.102Z,5.77
2018-12-17T23:19:41.828Z,5.78
2018-12-17T23:22:11.364Z,5.75
2018-12-17T23:24:40.744Z,5.78
2018-12-17T23:27:10.223Z,5.81
2018-12-17T23:29:39.562Z,5.88
2018-12-17T23:32:08.872Z,5.87
2018-12-17T23:34:38.092Z,5.90
2018-12-17T23:37:07.339Z,5.76
2018-12-17T23:39:36.447Z,5.32
2018-12-17T23:42:06.326Z,5.59
2018-12-17T23:44:37.883Z,5.90
2018-12-17T23:47:07.871Z,5.91
2018-12-17T23:49:37.169Z,5.71
2018-12-17T23:52:06.308Z,5.77
2018-12-17T23:54:35.504Z,5.96
2018-12-17T23:57:04.684Z,6.16
2018-12-17T23:59:33.990Z,6.20
